• Join FlightAware (Why Join?)
  • Login
  • US Flag 
10:31PM EST


 

Airport Tracker/Info


-or-


 

Live Flight TrackerFlight Track Log ✈ AWI3883 ✈ 26-Aug-2013 ✈ KSYR - KDCA

Flight Track Log - Related Links

Times and Time Zones

All times are in EDT time to prevent confusion due to time zone crossing. See the AWI3883 flight status page for this flight to view local times or setup timezone preferences in your user account.

Time Position Orientation Groundspeed Altitude Reporting Facility
EDT Latitude Longitude Course Direction KTS MPH feet Rate Location/Type
05:14PM 43.1039 -76.1828 264° West 170 196 2,500  Level Boston Center
05:15PM 43.0683 -76.2489 234° Southwest 240 276 4,300 2,280 Climbing Boston Center
05:17PM 42.9506 -76.3719 217° Southwest 274 315 9,600 1,860 Climbing New York Center
05:18PM 42.8750 -76.4303 210° Southwest 292 336 10,000 1,200 Climbing New York Center
05:19PM 42.7975 -76.4886 209° Southwest 317 365 12,100 1,980 Climbing New York Center
05:20PM 42.7197 -76.5467 209° Southwest 322 371 14,000 1,740 Climbing New York Center
05:21PM 42.6497 -76.6164 216° Southwest 327 376 15,700 1,680 Climbing New York Center
05:22PM 42.5856 -76.6925 221° Southwest 322 371 17,400 1,440 Climbing New York Center
05:23PM 42.5169 -76.7733 221° Southwest 322 371 18,600 1,080 Climbing New York Center
05:24PM 42.4328 -76.8358 209° Southwest 329 379 19,600 1,020 Climbing New York Center
05:25PM 42.3481 -76.9039 211° Southwest 350 403 20,700 840 Climbing New York Center
05:26PM 42.2636 -76.9686 210° Southwest 355 409 21,300 840 Climbing New York Center
05:27PM 42.1747 -77.0358 209° Southwest 360 414 22,400 840 Climbing New York Center
05:28PM 42.0878 -77.1033 210° Southwest 366 421 23,000 660 Climbing New York Center
05:29PM 41.9986 -77.1728 210° Southwest 371 427 23,800 480 Climbing New York Center
05:30PM 41.9053 -77.2447 210° Southwest 377 434 24,000 60 Climbing New York Center
05:31PM 41.8139 -77.3164 210° Southwest 382 440 24,000  Level New York Center
05:32PM 41.7225 -77.3881 210° Southwest 382 440 24,000  Level New York Center
05:33PM 41.6331 -77.4569 210° Southwest 382 440 24,000  Level New York Center
05:34PM 41.5442 -77.5203 208° Southwest 377 434 24,000  Level New York Center
05:35PM 41.4567 -77.5917 211° Southwest 377 434 24,000  Level New York Center
05:36PM 41.3636 -77.6156 191° South 377 434 24,000  Level New York Center
05:37PM 41.2561 -77.5661 161° South 372 428 24,000  Level New York Center
05:38PM 41.1503 -77.5194 162° South 385 443 24,000  Level New York Center
05:39PM 41.0428 -77.4703 161° South 396 456 24,000 -300 Level New York Center
05:40PM 40.9369 -77.4242 162° South 396 456 23,400 -840 Descending New York Center
05:41PM 40.8269 -77.3778 162° South 408 470 22,400 -960 Descending New York Center
05:42PM 40.7089 -77.3253 161° South 408 470 21,600 -960 Descending New York Center
05:43PM 40.6092 -77.2858 163° South 413 475 20,500 -1,380 Descending New York Center
05:44PM 40.4892 -77.2281 160° South 413 475 18,900 -1,260 Descending New York Center
05:45PM 40.3875 -77.1831 161° South 419 482 18,000 -480 Descending New York Center
05:46PM 40.2694 -77.1314 162° South 413 475 18,000  Level New York Center
05:47PM 40.1733 -77.0925 163° South 413 475 18,000  Level New York Center
05:48PM 40.0553 -77.0383 161° South 413 475 18,000  Level New York Center
05:49PM 39.9575 -76.9972 162° South 380 437 18,000  Level New York Center
05:50PM 39.8617 -76.9561 162° South 370 426 18,000 -600 Level New York Center
05:51PM 39.7678 -76.9156 162° South 359 413 16,800 -1,440 Descending New York Center
05:52PM 39.6833 -76.8833 164° South 369 425 15,400 -1,680 Descending Potomac TRACON
05:53PM 39.5833 -76.8333 159° South 368 423 13,500 -1,680 Descending Potomac TRACON
05:54PM 39.4833 -76.8000 166° South 357 411 12,100 -840 Descending Potomac TRACON
05:55PM 39.4000 -76.7500 155° Southeast 353 406 12,000 -660 Descending Potomac TRACON
05:56PM 39.3000 -76.7167 166° South 349 402 10,800 -1,020 Descending Potomac TRACON
05:57PM 39.2167 -76.6833 163° South 319 367 10,000 -420 Descending Potomac TRACON
05:58PM 39.1333 -76.7000 189° South 305 351 10,000 -240 Level Potomac TRACON
05:59PM 39.0667 -76.7833 224° Southwest 296 341 9,500 -1,080 Descending Potomac TRACON
06:00PM 39.0167 -76.8500 226° Southwest 291 335 7,900 -1,800 Descending Potomac TRACON
06:01PM 38.9667 -76.9167 226° Southwest 281 323 6,100 -1,020 Descending Potomac TRACON
06:02PM 38.9833 -77.0167 282° West 207 238 5,800 -720 Descending Potomac TRACON
06:03PM 39.0000 -77.0667 293° West 189 217 4,600 -1,260 Descending Potomac TRACON
06:04PM 39.0333 -77.1167 311° West 194 223 3,500 -900 Descending Potomac TRACON
06:05PM 39.0000 -77.1500 218° Southwest 180 207 3,000 -480 Descending Potomac TRACON
06:06PM 38.9333 -77.1333 169° South 192 221 2,600 -660 Descending Potomac TRACON
06:07PM 38.9167 -77.1000 123° Southeast 157 181 1,700 -960 Descending Potomac TRACON
06:08PM 38.8833 -77.0500 131° Southeast 149 171 800 -900 Descending Potomac TRACON
06:10PM 38.8519 -77.0377 180° South  Level Estimated
06:17PM 38.8500 -77.0333 343° North  Level FlightAware Approximate
06:18PM 38.8519 -77.0377 343° North  Level Estimated
06:19PM 38.8500 -77.0333 343° North  Level FlightAware Approximate